createdAt,value
2016-06-27T00:00:59.217Z,22.44
2016-06-27T00:01:59.195Z,22.41
2016-06-27T00:02:59.196Z,22.48
2016-06-27T00:03:59.174Z,22.46
2016-06-27T00:04:59.163Z,22.45
2016-06-27T00:05:59.134Z,22.46
2016-06-27T00:06:58.553Z,22.54
2016-06-27T00:07:59.210Z,22.49
2016-06-27T00:08:59.091Z,22.41
2016-06-27T00:09:58.482Z,22.48
2016-06-27T00:10:59.050Z,22.41
2016-06-27T00:11:59.051Z,22.44
2016-06-27T00:12:59.025Z,22.52
2016-06-27T00:13:58.427Z,22.52
2016-06-27T00:14:58.988Z,22.46
2016-06-27T00:15:59.194Z,22.44
2016-06-27T00:16:59.010Z,22.52
2016-06-27T00:17:58.953Z,22.52
2016-06-27T00:18:58.963Z,22.44
2016-06-27T00:19:58.933Z,22.44
2016-06-27T00:20:58.903Z,22.51
2016-06-27T00:21:58.889Z,22.49
2016-06-27T00:22:58.908Z,22.51
2016-06-27T00:23:59.221Z,22.51
2016-06-27T00:24:58.863Z,22.51
2016-06-27T00:25:58.884Z,22.49
2016-06-27T00:26:58.835Z,22.44
2016-06-27T00:27:58.222Z,22.49
2016-06-27T00:28:58.789Z,22.41
2016-06-27T00:29:58.772Z,22.51
2016-06-27T00:30:58.775Z,22.57
2016-06-27T00:31:59.240Z,22.48
2016-06-27T00:32:58.723Z,22.49
2016-06-27T00:33:58.706Z,22.54
2016-06-27T00:34:58.699Z,22.54
2016-06-27T00:35:58.682Z,22.45
2016-06-27T00:36:58.664Z,22.49
2016-06-27T00:37:58.650Z,22.49
2016-06-27T00:38:58.633Z,22.52
2016-06-27T00:39:59.219Z,22.41
2016-06-27T00:40:58.623Z,22.57
2016-06-27T00:41:58.592Z,22.48
2016-06-27T00:42:58.571Z,22.42
2016-06-27T00:43:58.558Z,22.46
2016-06-27T00:44:58.536Z,22.54
2016-06-27T00:45:58.543Z,22.49
2016-06-27T00:46:58.521Z,22.46
2016-06-27T00:47:58.507Z,22.54
2016-06-27T00:48:58.489Z,22.52
2016-06-27T00:49:58.463Z,22.46
2016-06-27T00:50:58.481Z,22.42
2016-06-27T00:51:58.451Z,22.46
2016-06-27T00:52:58.427Z,22.59
2016-06-27T00:53:58.413Z,22.46
2016-06-27T00:54:58.419Z,22.54
2016-06-27T00:55:59.233Z,22.6
2016-06-27T00:56:58.388Z,22.54
2016-06-27T00:57:58.366Z,22.46
2016-06-27T00:58:58.358Z,22.56
2016-06-27T00:59:58.329Z,22.52
2016-06-27T01:00:58.319Z,22.59
2016-06-27T01:01:58.343Z,22.56
2016-06-27T01:02:58.293Z,22.56
2016-06-27T01:03:57.676Z,22.59
2016-06-27T01:04:58.265Z,22.56
2016-06-27T01:05:58.237Z,22.6
2016-06-27T01:06:58.223Z,22.56
2016-06-27T01:07:58.213Z,22.54
2016-06-27T01:08:57.636Z,22.59
2016-06-27T01:09:58.179Z,22.57
2016-06-27T01:10:58.190Z,22.59
2016-06-27T01:11:58.499Z,22.46
2016-06-27T01:12:58.369Z,22.49
2016-06-27T01:13:58.138Z,22.59
2016-06-27T01:14:58.102Z,22.57
2016-06-27T01:15:58.093Z,22.51
2016-06-27T01:16:58.082Z,22.56
2016-06-27T01:17:58.070Z,22.59
2016-06-27T01:18:58.042Z,22.46
2016-06-27T01:19:58.529Z,22.46
2016-06-27T01:20:58.028Z,22.6
2016-06-27T01:21:58.035Z,22.57
2016-06-27T01:22:57.995Z,22.57
2016-06-27T01:23:57.980Z,22.51
2016-06-27T01:24:57.955Z,22.45
2016-06-27T01:25:57.345Z,22.52
2016-06-27T01:26:58.032Z,22.59
2016-06-27T01:27:57.321Z,22.56
2016-06-27T01:28:57.295Z,22.59
2016-06-27T01:29:57.875Z,22.56
2016-06-27T01:30:57.871Z,22.59
2016-06-27T01:31:57.861Z,22.48
2016-06-27T01:32:57.838Z,22.56
2016-06-27T01:33:57.827Z,22.59
2016-06-27T01:34:58.055Z,22.54
2016-06-27T01:35:57.799Z,22.59
2016-06-27T01:36:57.786Z,22.61
2016-06-27T01:37:57.818Z,22.59
2016-06-27T01:38:57.779Z,22.52
2016-06-27T01:39:57.738Z,22.51
2016-06-27T01:40:57.731Z,22.54
2016-06-27T01:41:57.107Z,22.51
2016-06-27T01:42:57.432Z,22.46
2016-06-27T01:43:57.676Z,22.46
2016-06-27T01:44:57.665Z,22.49
2016-06-27T01:45:57.656Z,22.54
2016-06-27T01:46:57.634Z,22.6
2016-06-27T01:47:57.628Z,22.51
2016-06-27T01:48:57.597Z,22.51
2016-06-27T01:49:57.595Z,22.45
2016-06-27T01:50:58.031Z,22.51
2016-06-27T01:51:57.558Z,22.52
2016-06-27T01:52:57.552Z,22.6
2016-06-27T01:53:57.556Z,22.46
2016-06-27T01:54:57.516Z,22.48
2016-06-27T01:55:57.501Z,22.59
2016-06-27T01:56:57.491Z,22.57
2016-06-27T01:57:57.480Z,22.46
2016-06-27T01:58:58.050Z,22.57
2016-06-27T01:59:57.449Z,22.59
2016-06-27T02:00:57.430Z,22.49
2016-06-27T02:01:57.412Z,22.56
2016-06-27T02:02:57.408Z,22.48
2016-06-27T02:03:57.381Z,22.6
2016-06-27T02:04:57.355Z,22.57
2016-06-27T02:05:57.357Z,22.57
2016-06-27T02:06:58.040Z,22.52
2016-06-27T02:07:57.307Z,22.56
2016-06-27T02:08:57.302Z,22.51
2016-06-27T02:09:57.286Z,22.59
2016-06-27T02:10:57.272Z,22.59
2016-06-27T02:11:56.651Z,22.48
2016-06-27T02:12:57.245Z,22.56
2016-06-27T02:13:56.635Z,22.6
2016-06-27T02:14:57.335Z,22.56
2016-06-27T02:15:57.204Z,22.51
2016-06-27T02:16:57.194Z,22.6
2016-06-27T02:17:57.179Z,22.52
2016-06-27T02:18:57.163Z,22.59
2016-06-27T02:19:57.148Z,22.54
2016-06-27T02:20:57.140Z,22.56
2016-06-27T02:21:57.125Z,22.49
2016-06-27T02:22:57.360Z,22.45
2016-06-27T02:23:57.085Z,22.56
2016-06-27T02:24:57.068Z,22.61
2016-06-27T02:25:57.057Z,22.48
2016-06-27T02:26:57.044Z,22.48
2016-06-27T02:27:57.021Z,22.61
2016-06-27T02:28:57.027Z,22.48
2016-06-27T02:29:57.006Z,22.56
2016-06-27T02:30:58.188Z,22.48
2016-06-27T02:31:56.371Z,22.56
2016-06-27T02:32:56.942Z,22.48
2016-06-27T02:33:56.927Z,22.46
2016-06-27T02:34:56.935Z,22.52
2016-06-27T02:35:56.910Z,22.46
2016-06-27T02:36:56.891Z,22.56
2016-06-27T02:37:56.873Z,22.52
2016-06-27T02:38:57.362Z,22.59
2016-06-27T02:39:56.850Z,22.59
2016-06-27T02:40:56.854Z,22.56
2016-06-27T02:41:56.831Z,22.45
2016-06-27T02:42:56.842Z,22.57
2016-06-27T02:43:56.786Z,22.57
2016-06-27T02:44:56.780Z,22.49
2016-06-27T02:45:56.815Z,22.54
2016-06-27T02:46:56.770Z,22.52
2016-06-27T02:47:56.723Z,22.57
2016-06-27T02:48:56.708Z,22.6
2016-06-27T02:49:56.700Z,22.56
2016-06-27T02:50:56.685Z,22.46
2016-06-27T02:51:56.675Z,22.56
2016-06-27T02:52:56.673Z,22.45
2016-06-27T02:53:56.992Z,22.52
2016-06-27T02:54:56.612Z,22.59
2016-06-27T02:55:56.612Z,22.51
2016-06-27T02:56:56.612Z,22.56
2016-06-27T02:57:56.582Z,22.54
2016-06-27T02:58:56.573Z,22.45
2016-06-27T02:59:56.571Z,22.59
2016-06-27T03:00:56.533Z,22.51
2016-06-27T03:01:56.269Z,22.56
2016-06-27T03:02:56.524Z,22.44
2016-06-27T03:03:56.491Z,22.48
2016-06-27T03:04:56.503Z,22.56
2016-06-27T03:05:56.496Z,22.59
2016-06-27T03:06:56.445Z,22.56
2016-06-27T03:07:56.441Z,22.57
2016-06-27T03:08:56.428Z,22.56
2016-06-27T03:09:56.911Z,22.57
2016-06-27T03:10:56.386Z,22.6
2016-06-27T03:11:56.378Z,22.51
2016-06-27T03:12:56.362Z,22.59
2016-06-27T03:13:56.369Z,22.51
2016-06-27T03:14:56.325Z,22.57
2016-06-27T03:15:56.315Z,22.59
2016-06-27T03:16:56.315Z,22.57
2016-06-27T03:17:56.843Z,22.57
2016-06-27T03:18:56.281Z,22.57
2016-06-27T03:19:56.258Z,22.54
2016-06-27T03:20:56.245Z,22.52
2016-06-27T03:21:56.224Z,22.59
2016-06-27T03:22:56.214Z,22.57
2016-06-27T03:23:56.193Z,22.56
2016-06-27T03:24:56.186Z,22.59
2016-06-27T03:25:57.011Z,22.57
2016-06-27T03:26:56.163Z,22.57
2016-06-27T03:27:56.137Z,22.46
2016-06-27T03:28:56.127Z,22.48
2016-06-27T03:29:56.106Z,22.56
2016-06-27T03:30:56.099Z,22.48
2016-06-27T03:31:56.324Z,22.59
2016-06-27T03:32:56.069Z,22.52
2016-06-27T03:33:56.193Z,22.56
2016-06-27T03:34:56.048Z,22.46
2016-06-27T03:35:56.024Z,22.57
2016-06-27T03:36:56.025Z,22.45
2016-06-27T03:37:55.381Z,22.49
2016-06-27T03:38:55.983Z,22.61
2016-06-27T03:39:55.976Z,22.56
2016-06-27T03:40:55.975Z,22.42
2016-06-27T03:41:56.173Z,22.59
2016-06-27T03:42:55.930Z,22.59
2016-06-27T03:43:55.890Z,22.57
2016-06-27T03:44:55.885Z,22.48
2016-06-27T03:45:55.870Z,22.48
2016-06-27T03:46:55.855Z,22.48
2016-06-27T03:47:55.844Z,22.45
2016-06-27T03:48:55.820Z,22.54
2016-06-27T03:49:56.205Z,22.56
2016-06-27T03:50:55.785Z,22.46
2016-06-27T03:51:55.816Z,22.48
2016-06-27T03:52:55.772Z,22.49
2016-06-27T03:53:55.748Z,22.45
2016-06-27T03:54:55.743Z,22.51
2016-06-27T03:55:55.719Z,22.54
2016-06-27T03:56:55.706Z,22.44
2016-06-27T03:57:55.688Z,22.45
2016-06-27T03:58:56.399Z,22.54
2016-06-27T03:59:55.678Z,22.49
2016-06-27T04:00:55.658Z,22.56
2016-06-27T04:01:55.629Z,22.48
2016-06-27T04:02:55.623Z,22.42
2016-06-27T04:03:55.599Z,22.45
2016-06-27T04:04:55.613Z,22.56
2016-06-27T04:05:55.578Z,22.51
2016-06-27T04:06:55.717Z,22.52
2016-06-27T04:07:55.549Z,22.51
2016-06-27T04:08:55.515Z,22.46
2016-06-27T04:09:55.511Z,22.44
2016-06-27T04:10:55.507Z,22.52
2016-06-27T04:11:55.474Z,22.46
2016-06-27T04:12:55.465Z,22.41
2016-06-27T04:13:55.457Z,22.46
2016-06-27T04:14:55.692Z,22.49
2016-06-27T04:15:55.422Z,22.46
2016-06-27T04:16:54.811Z,22.46
2016-06-27T04:17:55.388Z,22.56
2016-06-27T04:18:55.391Z,22.56
2016-06-27T04:19:54.757Z,22.49
2016-06-27T04:20:55.351Z,22.52
2016-06-27T04:21:55.340Z,22.52
2016-06-27T04:22:55.668Z,22.46
2016-06-27T04:23:55.305Z,22.45
2016-06-27T04:24:55.291Z,22.46
2016-06-27T04:25:55.271Z,22.54
2016-06-27T04:26:55.257Z,22.49
2016-06-27T04:27:55.251Z,22.46
2016-06-27T04:28:55.233Z,22.56
2016-06-27T04:29:55.238Z,22.46
2016-06-27T04:30:55.751Z,22.56
2016-06-27T04:31:54.601Z,22.46
2016-06-27T04:32:55.172Z,22.48
2016-06-27T04:33:55.155Z,22.48
2016-06-27T04:34:55.131Z,22.45
2016-06-27T04:35:55.125Z,22.48
2016-06-27T04:36:55.108Z,22.52
2016-06-27T04:37:55.379Z,22.51
2016-06-27T04:38:55.082Z,22.46
2016-06-27T04:39:55.082Z,22.54
2016-06-27T04:40:55.067Z,22.52
2016-06-27T04:41:55.070Z,22.48
2016-06-27T04:42:55.025Z,22.52
2016-06-27T04:43:55.011Z,22.54
2016-06-27T04:44:54.986Z,22.52
2016-06-27T04:45:54.482Z,22.52
2016-06-27T04:46:54.967Z,22.52
2016-06-27T04:47:54.951Z,22.48
2016-06-27T04:48:54.934Z,22.45
2016-06-27T04:49:54.926Z,22.48
2016-06-27T04:50:54.909Z,22.44
2016-06-27T04:51:54.891Z,22.52
2016-06-27T04:52:54.877Z,22.45
2016-06-27T04:53:55.208Z,22.49
2016-06-27T04:54:54.848Z,22.51
2016-06-27T04:55:54.864Z,22.46
2016-06-27T04:56:54.812Z,22.49
2016-06-27T04:57:54.819Z,22.49
2016-06-27T04:58:54.788Z,22.48
2016-06-27T04:59:54.765Z,22.44
2016-06-27T05:00:54.797Z,22.45
2016-06-27T05:01:54.640Z,22.51
2016-06-27T05:02:54.753Z,22.46
2016-06-27T05:03:54.738Z,22.45
2016-06-27T05:04:54.721Z,22.42
2016-06-27T05:05:54.692Z,22.45
2016-06-27T05:06:54.670Z,22.51
2016-06-27T05:07:54.662Z,22.49
2016-06-27T05:08:54.647Z,22.42
2016-06-27T05:09:55.261Z,22.45
2016-06-27T05:10:54.614Z,22.45
2016-06-27T05:11:54.636Z,22.45
2016-06-27T05:12:54.587Z,22.46
2016-06-27T05:13:54.569Z,22.42
2016-06-27T05:14:54.554Z,22.49
2016-06-27T05:15:54.535Z,22.52
2016-06-27T05:16:54.540Z,22.52
2016-06-27T05:17:53.917Z,22.38
2016-06-27T05:18:54.500Z,22.44
2016-06-27T05:19:54.466Z,22.31
2016-06-27T05:20:54.477Z,22.27
2016-06-27T05:21:54.455Z,22.31
2016-06-27T05:22:54.439Z,22.17
2016-06-27T05:23:54.419Z,22.24
2016-06-27T05:24:54.400Z,22.15
2016-06-27T05:25:54.530Z,22.21
2016-06-27T05:26:54.397Z,22.23
2016-06-27T05:27:54.362Z,22.2
2016-06-27T05:28:54.345Z,22.27
2016-06-27T05:29:54.319Z,22.29
2016-06-27T05:30:54.311Z,22.29
2016-06-27T05:31:54.308Z,22.31
2016-06-27T05:32:54.286Z,22.33
2016-06-27T05:33:54.531Z,22.35
2016-06-27T05:34:54.242Z,22.39
2016-06-27T05:35:54.237Z,22.39
2016-06-27T05:36:54.235Z,22.39
2016-06-27T05:37:54.215Z,22.29
2016-06-27T05:38:54.185Z,22.39
2016-06-27T05:39:53.571Z,22.35
2016-06-27T05:40:54.173Z,22.29
2016-06-27T05:41:54.551Z,22.35
2016-06-27T05:42:53.537Z,22.35
2016-06-27T05:43:54.116Z,22.33
2016-06-27T05:44:54.117Z,22.33
2016-06-27T05:45:54.132Z,22.41
2016-06-27T05:46:54.067Z,22.39
2016-06-27T05:47:54.067Z,22.33
2016-06-27T05:48:54.051Z,22.41
2016-06-27T05:49:54.541Z,22.36
2016-06-27T05:50:54.010Z,22.42
2016-06-27T05:51:53.999Z,22.38
2016-06-27T05:52:54.019Z,22.35
2016-06-27T05:53:53.993Z,22.38
2016-06-27T05:54:53.986Z,22.38
2016-06-27T05:55:53.998Z,22.51
2016-06-27T05:56:54.134Z,22.42
2016-06-27T05:57:53.915Z,22.51
2016-06-27T05:58:53.895Z,22.48
2016-06-27T05:59:53.875Z,22.52
2016-06-27T06:00:53.872Z,22.45
2016-06-27T06:01:53.866Z,22.44
2016-06-27T06:02:53.851Z,22.45
2016-06-27T06:03:53.250Z,22.48
2016-06-27T06:04:54.048Z,22.46
2016-06-27T06:05:53.825Z,22.56
2016-06-27T06:06:53.771Z,22.52
2016-06-27T06:07:53.762Z,22.54
2016-06-27T06:08:53.754Z,22.41
2016-06-27T06:09:53.725Z,22.41
2016-06-27T06:10:53.742Z,22.45
2016-06-27T06:11:53.698Z,22.45
2016-06-27T06:12:54.148Z,22.54
2016-06-27T06:13:53.079Z,22.48
2016-06-27T06:14:53.653Z,22.49
2016-06-27T06:15:53.635Z,22.46
2016-06-27T06:16:53.626Z,22.48
2016-06-27T06:17:53.611Z,22.49
2016-06-27T06:18:53.594Z,22.41
2016-06-27T06:19:53.588Z,22.49
2016-06-27T06:20:54.035Z,22.49
2016-06-27T06:21:53.564Z,22.48
2016-06-27T06:22:53.549Z,22.54
2016-06-27T06:23:53.528Z,22.54
2016-06-27T06:24:53.507Z,22.52
2016-06-27T06:25:53.514Z,22.48
2016-06-27T06:26:53.483Z,22.48
2016-06-27T06:27:53.461Z,22.49
2016-06-27T06:28:54.058Z,22.46
2016-06-27T06:29:53.434Z,22.48
2016-06-27T06:30:53.423Z,22.52
2016-06-27T06:31:53.406Z,22.51
2016-06-27T06:32:53.417Z,22.52
2016-06-27T06:33:53.372Z,22.45
2016-06-27T06:34:53.357Z,22.51
2016-06-27T06:35:53.346Z,22.52
2016-06-27T06:36:53.330Z,22.51
2016-06-27T06:37:53.307Z,22.48
2016-06-27T06:38:53.330Z,22.44
2016-06-27T06:39:53.283Z,22.52
2016-06-27T06:40:53.293Z,22.56
2016-06-27T06:41:53.261Z,22.54
2016-06-27T06:42:53.227Z,22.44
2016-06-27T06:43:53.222Z,22.41
2016-06-27T06:44:53.385Z,22.52
2016-06-27T06:45:53.193Z,22.48
2016-06-27T06:46:53.182Z,22.48
2016-06-27T06:47:53.171Z,22.45
2016-06-27T06:48:53.186Z,22.51
2016-06-27T06:49:52.531Z,22.45
2016-06-27T06:50:53.126Z,22.51
2016-06-27T06:51:53.093Z,22.54
2016-06-27T06:52:53.346Z,22.49
2016-06-27T06:53:53.083Z,22.63
2016-06-27T06:54:53.099Z,22.63
2016-06-27T06:55:52.461Z,22.67
2016-06-27T06:56:53.050Z,22.72
2016-06-27T06:57:53.021Z,22.75
2016-06-27T06:58:53.026Z,22.78
2016-06-27T06:59:53.019Z,22.75
2016-06-27T07:00:53.393Z,22.79
2016-06-27T07:01:52.952Z,22.82
2016-06-27T07:02:52.942Z,22.84
2016-06-27T07:03:52.923Z,22.84
2016-06-27T07:04:52.915Z,22.88
2016-06-27T07:05:52.900Z,22.81
2016-06-27T07:06:52.279Z,22.91
2016-06-27T07:07:52.867Z,22.86
2016-06-27T07:08:53.347Z,22.89
2016-06-27T07:09:52.836Z,22.82
2016-06-27T07:10:52.210Z,22.85
2016-06-27T07:11:52.815Z,22.89
2016-06-27T07:12:52.786Z,22.86
2016-06-27T07:13:52.791Z,22.01
2016-06-27T07:14:52.786Z,21.66
2016-06-27T07:15:52.758Z,21.73
2016-06-27T07:16:52.747Z,21.93
2016-06-27T07:17:52.617Z,22.08
2016-06-27T07:18:52.702Z,22.29
2016-06-27T07:19:52.685Z,22.36
2016-06-27T07:20:52.670Z,22.48
2016-06-27T07:21:52.695Z,22.54
2016-06-27T07:22:52.638Z,22.45
2016-06-27T07:23:52.632Z,22.51
2016-06-27T07:24:52.029Z,22.48
2016-06-27T07:25:52.598Z,22.67
2016-06-27T07:26:52.586Z,22.57
2016-06-27T07:27:51.964Z,22.61
2016-06-27T07:28:52.564Z,22.6
2016-06-27T07:29:52.550Z,22.54
2016-06-27T07:30:52.518Z,22.59
2016-06-27T07:31:52.502Z,22.57
2016-06-27T07:32:52.492Z,22.64
2016-06-27T07:33:51.889Z,22.6
2016-06-27T07:34:52.467Z,22.57
2016-06-27T07:35:52.486Z,22.69
2016-06-27T07:36:52.437Z,22.69
2016-06-27T07:37:52.425Z,22.69
2016-06-27T07:38:51.805Z,22.67
2016-06-27T07:39:52.400Z,22.75
2016-06-27T07:40:52.378Z,22.67
2016-06-27T07:41:52.624Z,22.7
2016-06-27T07:42:52.332Z,22.69
2016-06-27T07:43:52.345Z,22.74
2016-06-27T07:44:51.118Z,22.74
2016-06-27T07:45:52.293Z,22.74
2016-06-27T07:46:52.304Z,22.7
2016-06-27T07:47:52.293Z,22.69
2016-06-27T07:48:52.254Z,22.76
2016-06-27T07:49:52.648Z,22.74
2016-06-27T07:50:52.242Z,22.72
2016-06-27T07:51:51.611Z,22.76
2016-06-27T07:52:52.221Z,22.75
2016-06-27T07:53:52.173Z,22.76
2016-06-27T07:54:52.199Z,22.78
2016-06-27T07:55:52.153Z,22.78
2016-06-27T07:56:52.165Z,22.84
2016-06-27T07:57:52.636Z,22.79
2016-06-27T07:58:52.114Z,22.78
2016-06-27T07:59:52.101Z,22.74
2016-06-27T08:00:52.078Z,22.75
2016-06-27T08:01:52.098Z,22.84
2016-06-27T08:02:52.082Z,22.75
2016-06-27T08:03:52.048Z,22.78
2016-06-27T08:04:52.242Z,22.79
2016-06-27T08:05:52.679Z,22.81
2016-06-27T08:06:51.411Z,22.81
2016-06-27T08:07:51.978Z,22.79
2016-06-27T08:08:51.991Z,22.78
2016-06-27T08:09:51.944Z,22.78
2016-06-27T08:10:51.336Z,22.81
2016-06-27T08:11:51.920Z,22.82
2016-06-27T08:12:51.905Z,22.91
2016-06-27T08:13:51.901Z,22.86
2016-06-27T08:14:51.877Z,22.93
2016-06-27T08:15:51.894Z,22.97
2016-06-27T08:16:51.835Z,23.01
2016-06-27T08:17:51.825Z,22.96
2016-06-27T08:18:51.814Z,23
2016-06-27T08:19:51.818Z,23.03
2016-06-27T08:20:51.790Z,23
2016-06-27T08:21:51.923Z,23.03
2016-06-27T08:22:51.757Z,23.01
2016-06-27T08:23:51.738Z,23.01
2016-06-27T08:24:51.731Z,23
2016-06-27T08:25:51.707Z,22.93
2016-06-27T08:26:51.711Z,23.04
2016-06-27T08:27:51.683Z,23
2016-06-27T08:28:51.662Z,23
2016-06-27T08:29:51.966Z,23.11
2016-06-27T08:30:51.721Z,23.14
2016-06-27T08:31:51.759Z,23.11
2016-06-27T08:32:51.623Z,23.07
2016-06-27T08:33:51.594Z,23.07
2016-06-27T08:34:51.586Z,23.14
2016-06-27T08:35:51.577Z,23.07
2016-06-27T08:36:51.594Z,23.07
2016-06-27T08:37:51.998Z,23.09
2016-06-27T08:38:51.527Z,23.04
2016-06-27T08:39:51.526Z,23.06
2016-06-27T08:40:51.490Z,23.12
2016-06-27T08:41:51.479Z,22.99
2016-06-27T08:42:51.482Z,22.7
2016-06-27T08:43:51.442Z,22.51
2016-06-27T08:44:51.448Z,22.33
2016-06-27T08:45:52.667Z,22.23
2016-06-27T08:46:51.407Z,22.06
2016-06-27T08:47:51.388Z,22.04
2016-06-27T08:48:51.373Z,21.99
2016-06-27T08:49:51.382Z,22.17
2016-06-27T08:50:51.345Z,22.33
2016-06-27T08:51:51.344Z,22.45
2016-06-27T08:52:51.463Z,22.59
2016-06-27T08:53:51.285Z,22.74
2016-06-27T08:54:50.677Z,22.76
2016-06-27T08:55:51.273Z,22.89
2016-06-27T08:56:51.285Z,22.82
2016-06-27T08:57:51.243Z,22.84
2016-06-27T08:58:51.247Z,22.89
2016-06-27T08:59:51.223Z,22.86
2016-06-27T09:00:51.441Z,23.04
2016-06-27T09:01:51.206Z,23
2016-06-27T09:02:51.217Z,23.01
2016-06-27T09:03:51.163Z,23.03
2016-06-27T09:04:51.158Z,23.01
2016-06-27T09:05:51.130Z,22.96
2016-06-27T09:06:51.129Z,22.99
2016-06-27T09:07:51.098Z,23.06
2016-06-27T09:08:51.433Z,23.03
2016-06-27T09:09:51.050Z,23.06
2016-06-27T09:10:50.457Z,23.07
2016-06-27T09:11:51.031Z,23.03
2016-06-27T09:12:51.022Z,22.99
2016-06-27T09:13:51.016Z,23.06
2016-06-27T09:14:51.007Z,23.07
2016-06-27T09:15:51.236Z,23.09
2016-06-27T09:16:50.982Z,23.18
2016-06-27T09:17:50.985Z,23.15
2016-06-27T09:18:50.946Z,22.93
2016-06-27T09:19:50.910Z,22.82
2016-06-27T09:20:50.915Z,22.7
2016-06-27T09:21:50.902Z,22.56
2016-06-27T09:22:50.868Z,22.61
2016-06-27T09:23:51.361Z,22.54
2016-06-27T09:24:50.254Z,22.48
2016-06-27T09:25:50.859Z,22.48
2016-06-27T09:26:50.815Z,22.61
2016-06-27T09:27:50.811Z,22.46
2016-06-27T09:28:50.791Z,22.51
2016-06-27T09:29:50.767Z,22.59
2016-06-27T09:30:50.749Z,22.57
2016-06-27T09:31:51.212Z,22.56
2016-06-27T09:32:50.764Z,22.46
2016-06-27T09:33:50.713Z,22.45
2016-06-27T09:34:50.715Z,22.49
2016-06-27T09:35:50.677Z,22.44
2016-06-27T09:36:50.670Z,22.46
2016-06-27T09:37:50.649Z,22.46
2016-06-27T09:38:50.635Z,22.45
2016-06-27T09:39:51.386Z,22.44
2016-06-27T09:40:50.608Z,22.52
2016-06-27T09:41:50.599Z,22.45
2016-06-27T09:42:50.588Z,22.44
2016-06-27T09:43:50.574Z,22.46
2016-06-27T09:44:50.537Z,22.52
2016-06-27T09:45:50.563Z,22.44
2016-06-27T09:46:50.512Z,22.54
2016-06-27T09:47:50.507Z,22.51
2016-06-27T09:48:50.484Z,22.48
2016-06-27T09:49:50.485Z,22.48
2016-06-27T09:50:50.466Z,22.46
2016-06-27T09:51:50.454Z,22.44
2016-06-27T09:52:50.433Z,22.46
2016-06-27T09:53:50.411Z,22.39
2016-06-27T09:54:50.447Z,22.56
2016-06-27T09:55:50.541Z,22.46
2016-06-27T09:56:50.370Z,22.52
2016-06-27T09:57:50.359Z,22.46
2016-06-27T09:58:50.344Z,22.49
2016-06-27T09:59:50.331Z,22.49
2016-06-27T10:00:50.298Z,22.46
2016-06-27T10:01:50.309Z,22.42
2016-06-27T10:02:50.278Z,22.44
2016-06-27T10:03:51.376Z,22.41
2016-06-27T10:04:50.280Z,22.44
2016-06-27T10:05:50.245Z,22.51
2016-06-27T10:06:50.223Z,22.48
2016-06-27T10:07:49.598Z,22.52
2016-06-27T10:08:50.219Z,22.38
2016-06-27T10:09:50.170Z,22.38
2016-06-27T10:10:50.169Z,22.48
2016-06-27T10:11:51.431Z,22.33
2016-06-27T10:12:50.130Z,22.39
2016-06-27T10:13:50.123Z,22.46
2016-06-27T10:14:50.088Z,22.49
2016-06-27T10:15:50.078Z,22.42
2016-06-27T10:16:50.061Z,22.45
2016-06-27T10:17:50.060Z,22.46
2016-06-27T10:18:50.066Z,22.49
2016-06-27T10:19:50.535Z,22.52
2016-06-27T10:20:50.007Z,22.45
2016-06-27T10:21:49.995Z,22.54
2016-06-27T10:22:49.980Z,22.59
2016-06-27T10:23:49.980Z,22.42
2016-06-27T10:24:49.370Z,22.45
2016-06-27T10:25:49.934Z,22.48
2016-06-27T10:26:49.911Z,22.57
2016-06-27T10:27:49.925Z,22.56
2016-06-27T10:28:49.892Z,22.56
2016-06-27T10:29:49.894Z,22.52
2016-06-27T10:30:49.858Z,22.46
2016-06-27T10:31:49.251Z,22.56
2016-06-27T10:32:49.825Z,22.57
2016-06-27T10:33:49.826Z,22.46
2016-06-27T10:34:49.815Z,22.48
2016-06-27T10:35:49.781Z,22.6
2016-06-27T10:36:49.818Z,22.57
2016-06-27T10:37:49.748Z,22.6
2016-06-27T10:38:49.767Z,22.61
2016-06-27T10:39:49.726Z,22.59
2016-06-27T10:40:49.707Z,22.56
2016-06-27T10:41:49.692Z,22.56
2016-06-27T10:42:49.694Z,22.54
2016-06-27T10:43:49.666Z,22.59
2016-06-27T10:44:49.811Z,22.59
2016-06-27T10:45:49.656Z,22.61
2016-06-27T10:46:49.646Z,22.57
2016-06-27T10:47:49.042Z,22.59
2016-06-27T10:48:49.586Z,22.64
2016-06-27T10:49:49.612Z,22.7
2016-06-27T10:50:49.550Z,22.6
2016-06-27T10:51:49.533Z,22.61
2016-06-27T10:52:49.797Z,22.66
2016-06-27T10:53:49.537Z,22.64
2016-06-27T10:54:49.498Z,22.67
2016-06-27T10:55:49.481Z,22.67
2016-06-27T10:56:49.469Z,22.63
2016-06-27T10:57:49.475Z,22.7
2016-06-27T10:58:49.438Z,22.63
2016-06-27T10:59:49.426Z,22.69
2016-06-27T11:00:49.767Z,22.57
2016-06-27T11:01:49.393Z,22.56
2016-06-27T11:02:49.394Z,22.6
2016-06-27T11:03:49.364Z,22.52
2016-06-27T11:04:49.352Z,22.54
2016-06-27T11:05:49.331Z,22.45
2016-06-27T11:06:49.318Z,22.52
2016-06-27T11:07:49.300Z,22.45
2016-06-27T11:08:49.811Z,22.52
2016-06-27T11:09:49.282Z,22.51
2016-06-27T11:10:49.268Z,22.52
2016-06-27T11:11:49.245Z,22.45
2016-06-27T11:12:49.247Z,22.35
2016-06-27T11:13:49.228Z,22.21
2016-06-27T11:14:49.200Z,22.15
2016-06-27T11:15:49.201Z,22.2
2016-06-27T11:16:49.816Z,22.27
2016-06-27T11:17:49.162Z,22.35
2016-06-27T11:18:48.524Z,22.45
2016-06-27T11:19:49.133Z,22.46
2016-06-27T11:20:49.111Z,22.57
2016-06-27T11:21:49.103Z,22.59
2016-06-27T11:22:48.511Z,22.59
2016-06-27T11:23:49.089Z,22.57
2016-06-27T11:24:49.094Z,22.57
2016-06-27T11:25:48.445Z,22.59
2016-06-27T11:26:49.027Z,22.64
2016-06-27T11:27:49.016Z,22.69
2016-06-27T11:28:48.988Z,22.84
2016-06-27T11:29:48.969Z,22.94
2016-06-27T11:30:48.968Z,23
2016-06-27T11:31:48.966Z,23.07
2016-06-27T11:32:48.351Z,22.99
2016-06-27T11:33:48.938Z,23.12
2016-06-27T11:34:48.910Z,23.03
2016-06-27T11:35:48.898Z,23.06
2016-06-27T11:36:48.920Z,23.04
2016-06-27T11:37:48.872Z,23.09
2016-06-27T11:38:48.863Z,23.19
2016-06-27T11:39:48.825Z,23.18
2016-06-27T11:40:49.122Z,23.16
2016-06-27T11:41:48.809Z,23.19
2016-06-27T11:46:09.871Z,23.11
2016-06-27T11:46:37.859Z,23.18
2016-06-27T11:47:37.905Z,23.15
2016-06-27T11:48:37.836Z,23.19
2016-06-27T11:49:37.830Z,23.29
2016-06-27T11:50:37.827Z,23.22
2016-06-27T11:51:37.798Z,23.23
2016-06-27T11:52:37.785Z,23.25
2016-06-27T11:53:37.167Z,23.21
2016-06-27T11:54:37.750Z,23.26
2016-06-27T11:55:37.755Z,23.37
2016-06-27T11:56:37.122Z,23.34
2016-06-27T11:57:37.719Z,23.26
2016-06-27T11:58:37.934Z,23.37
2016-06-27T11:59:37.676Z,23.38
2016-06-27T12:00:37.676Z,23.37
2016-06-27T12:01:38.118Z,23.34
2016-06-27T12:02:37.639Z,23.32
2016-06-27T12:03:37.628Z,23.38
2016-06-27T12:04:37.615Z,23.39
2016-06-27T12:05:37.595Z,23.39
2016-06-27T12:06:37.605Z,23.35
2016-06-27T12:07:37.556Z,23.37
2016-06-27T12:08:37.648Z,23.38
2016-06-27T12:09:37.558Z,23.31
2016-06-27T12:10:37.537Z,23.31
2016-06-27T12:11:37.509Z,23.37
2016-06-27T12:12:37.499Z,23.38
2016-06-27T12:13:37.496Z,23.34
2016-06-27T12:14:37.505Z,23.26
2016-06-27T12:15:37.454Z,23.29
2016-06-27T12:16:37.697Z,23.31
2016-06-27T12:17:37.430Z,23.32
2016-06-27T12:18:37.427Z,23.37
2016-06-27T12:19:36.841Z,23.31
2016-06-27T12:20:37.431Z,23.41
2016-06-27T12:21:36.770Z,23.37
2016-06-27T12:22:37.355Z,23.44
2016-06-27T12:23:36.758Z,23.32
2016-06-27T12:24:37.607Z,23.38
2016-06-27T12:25:37.302Z,23.39
2016-06-27T12:26:37.268Z,23.39
2016-06-27T12:27:37.273Z,23.42
2016-06-27T12:28:37.257Z,22.99
2016-06-27T12:29:37.258Z,22.85
2016-06-27T12:30:37.274Z,22.75
2016-06-27T12:31:37.236Z,22.59
2016-06-27T12:32:37.639Z,22.48
2016-06-27T12:33:37.192Z,22.36
2016-06-27T12:34:37.172Z,22.36
2016-06-27T12:35:37.133Z,22.38
2016-06-27T12:36:37.136Z,22.26
2016-06-27T12:37:37.122Z,22.3
2016-06-27T12:38:37.124Z,22.23
2016-06-27T12:39:37.111Z,22.23
2016-06-27T12:40:37.778Z,22.29
2016-06-27T12:41:37.067Z,22.24
2016-06-27T12:42:37.040Z,22.24
2016-06-27T12:43:37.034Z,22.05
2016-06-27T12:44:37.030Z,22.2
2016-06-27T12:45:37.031Z,22.14
2016-06-27T12:46:36.992Z,22.09
2016-06-27T12:47:36.966Z,22.09
2016-06-27T12:48:37.703Z,22.12
2016-06-27T12:49:36.957Z,22.02
2016-06-27T12:50:36.972Z,22.17
2016-06-27T12:51:35.732Z,22.24
2016-06-27T12:54:09.569Z,22.46
2016-06-27T12:54:36.866Z,22.56
2016-06-27T12:55:36.905Z,22.59
2016-06-27T12:56:36.847Z,22.59
2016-06-27T12:57:36.958Z,22.69
2016-06-27T12:58:36.813Z,22.7